Time;durP1;ratioP1;P1;durP2;ratioP2;P2;SDS_P1;SDS_P2;PMS_P1;PMS_P2;Temp;Humidity;BMP_temperature;BMP_pressure;BME280_temperature;BME280_humidity;BME280_pressure;Samples;Min_cycle;Max_cycle;Signal;HPM_P1;HPM_P2
2021/08/29 00:00:13;;;;;;;6.97;1.83;;;14.70;99.90;;;15.65;100.00;98347.69;5045487;28;20461;-77
2021/08/29 00:02:41;;;;;;;2.87;1.70;;;14.70;99.90;;;15.67;100.00;98343.81;5053046;28;20465;-77
2021/08/29 00:05:11;;;;;;;2.63;2.03;;;14.70;99.90;;;15.67;100.00;98346.44;5051536;28;20567;-77
2021/08/29 00:07:40;;;;;;;17.53;1.80;;;14.80;99.90;;;15.70;100.00;98358.38;5050187;28;20468;-76
2021/08/29 00:10:10;;;;;;;8.60;2.47;;;14.90;99.90;;;15.70;100.00;98337.28;5052444;28;20461;-77
2021/08/29 00:12:40;;;;;;;4.20;1.97;;;14.90;99.90;;;15.69;100.00;98340.97;5060904;28;20538;-77
2021/08/29 00:15:10;;;;;;;5.50;2.00;;;14.90;99.90;;;15.60;100.00;98343.84;5061876;28;20479;-76
2021/08/29 00:17:40;;;;;;;2.00;1.60;;;14.80;99.90;;;15.57;100.00;98340.81;5057351;28;20463;-76
2021/08/29 00:20:10;;;;;;;2.87;1.90;;;14.70;99.90;;;15.58;100.00;98343.22;5052787;28;20477;-77
2021/08/29 00:22:39;;;;;;;9.00;1.87;;;14.70;99.90;;;15.54;100.00;98344.69;5052118;28;20466;-77
2021/08/29 00:25:09;;;;;;;3.00;1.80;;;14.70;99.90;;;15.55;100.00;98335.75;5054589;28;20460;-77
2021/08/29 00:27:37;;;;;;;4.67;2.10;;;14.80;99.90;;;15.54;100.00;98336.78;5060887;28;20981;-76
2021/08/29 00:30:07;;;;;;;11.63;2.60;;;14.80;99.90;;;15.54;100.00;98334.16;5052817;28;20488;-76
2021/08/29 00:32:36;;;;;;;3.80;2.23;;;14.80;99.90;;;15.51;100.00;98329.31;5049424;28;20489;-77
2021/08/29 00:35:07;;;;;;;4.00;3.00;;;14.80;99.90;;;15.49;100.00;98328.69;5047873;28;20492;-77
2021/08/29 00:37:35;;;;;;;4.20;3.10;;;14.80;99.90;;;15.47;100.00;98330.72;5048961;28;20453;-77
2021/08/29 00:40:06;;;;;;;11.20;3.57;;;14.70;99.90;;;15.47;100.00;98328.06;5048707;28;20524;-76
2021/08/29 00:42:35;;;;;;;5.93;4.43;;;14.80;99.90;;;15.48;100.00;98324.44;5048419;28;20794;-76
2021/08/29 00:45:05;;;;;;;4.90;4.00;;;14.80;99.90;;;15.47;100.00;98329.91;5053743;28;20526;-76
2021/08/29 00:47:34;;;;;;;8.63;4.93;;;14.90;99.90;;;15.41;100.00;98325.47;5059105;28;20487;-77
2021/08/29 00:50:06;;;;;;;6.27;5.03;;;14.70;99.90;;;15.41;100.00;98314.94;5043976;28;21022;-76
2021/08/29 00:52:39;;;;;;;11.43;5.60;;;14.70;99.90;;;15.40;100.00;98308.84;5054406;28;20492;-77
2021/08/29 00:55:10;;;;;;;10.00;5.30;;;14.80;99.90;;;15.40;100.00;98319.38;5048984;28;20500;-77
2021/08/29 00:57:40;;;;;;;6.13;5.07;;;14.70;99.90;;;15.29;100.00;98304.25;5050796;28;20526;-77
2021/08/29 01:00:11;;;;;;;9.03;5.60;;;14.60;99.90;;;15.31;100.00;98312.72;5049029;28;20518;-76
2021/08/29 01:02:41;;;;;;;5.90;4.77;;;14.70;99.90;;;15.20;100.00;98302.88;5047566;28;20469;-77
2021/08/29 01:05:21;;;;;;;7.70;4.80;;;14.60;99.90;;;15.24;100.00;98314.59;5054787;28;20535;-76
2021/08/29 01:07:58;;;;;;;6.30;4.73;;;14.60;99.90;;;15.17;100.00;98305.91;5046998;28;20857;-77
2021/08/29 01:10:35;;;;;;;5.50;4.40;;;14.50;99.90;;;15.23;100.00;98305.09;5051672;28;20461;-76
2021/08/29 01:13:12;;;;;;;5.87;4.37;;;14.50;99.90;;;15.29;100.00;98293.69;5048991;28;20500;-76
2021/08/29 01:15:47;;;;;;;5.80;5.13;;;14.60;99.90;;;15.19;100.00;98289.91;5050046;28;20523;-76
2021/08/29 01:18:20;;;;;;;7.50;4.87;;;14.40;99.90;;;15.21;100.00;98293.94;5050554;28;20556;-77
2021/08/29 01:21:00;;;;;;;6.63;4.67;;;14.60;99.90;;;15.25;100.00;98286.41;5050913;28;20861;-77
2021/08/29 01:23:31;;;;;;;7.03;5.23;;;14.50;99.90;;;15.20;100.00;98284.44;5050702;28;20872;-76
2021/08/29 01:26:09;;;;;;;5.80;5.20;;;14.50;99.90;;;15.20;100.00;98292.34;5046117;28;20481;-78
2021/08/29 01:28:58;;;;;;;8.97;4.70;;;14.40;99.90;;;15.20;100.00;98284.44;5042881;28;20490;-76
2021/08/29 01:31:30;;;;;;;6.30;4.37;;;14.50;99.90;;;15.20;100.00;98280.97;5053766;28;20569;-77
2021/08/29 01:34:02;;;;;;;5.37;4.87;;;14.50;99.90;;;15.19;100.00;98287.25;5054038;28;20657;-76
2021/08/29 01:36:32;;;;;;;7.67;4.07;;;14.40;99.90;;;15.17;100.00;98284.03;5052353;28;20577;-76
2021/08/29 01:39:02;;;;;;;7.07;4.77;;;14.30;99.90;;;15.20;100.00;98292.34;5058216;28;20465;-76
2021/08/29 01:41:34;;;;;;;6.40;4.80;;;14.40;99.90;;;15.23;100.00;98291.09;5053138;28;20550;-77
2021/08/29 01:44:06;;;;;;;12.07;4.63;;;14.50;99.90;;;15.22;100.00;98282.38;5052190;28;20514;-76
2021/08/29 01:46:36;;;;;;;7.60;5.20;;;14.50;99.90;;;15.21;100.00;98286.03;5056855;28;20465;-77
2021/08/29 01:49:09;;;;;;;5.20;4.60;;;14.60;99.90;;;15.25;100.00;98292.50;5058395;28;20503;-77
2021/08/29 01:51:38;;;;;;;6.47;4.60;;;14.60;99.90;;;15.25;100.00;98292.50;5055149;28;20491;-77
2021/08/29 01:54:07;;;;;;;5.77;4.77;;;14.50;99.90;;;15.26;100.00;98294.13;5053024;28;20496;-77
2021/08/29 01:56:58;;;;;;;5.07;4.53;;;14.60;99.90;;;15.24;100.00;98296.13;5062771;28;20453;-76
2021/08/29 01:59:29;;;;;;;7.53;5.13;;;14.60;99.90;;;15.19;100.00;98297.81;5045954;28;20523;-76
2021/08/29 02:01:59;;;;;;;13.40;5.30;;;14.40;99.90;;;15.25;100.00;98289.88;5051348;28;21606;-76
2021/08/29 02:04:30;;;;;;;12.83;5.60;;;14.50;99.90;;;15.22;100.00;98302.66;5053454;28;20445;-76
2021/08/29 02:07:13;;;;;;;5.80;5.20;;;14.40;99.90;;;15.22;100.00;98298.19;5046750;28;20981;-76
2021/08/29 02:09:48;;;;;;;9.50;5.63;;;14.50;99.90;;;15.24;100.00;98295.38;5053411;28;20515;-76
2021/08/29 02:12:17;;;;;;;6.43;5.83;;;14.50;99.90;;;15.22;100.00;98287.66;5050356;28;20991;-77
2021/08/29 02:14:56;;;;;;;7.90;5.93;;;14.50;99.90;;;15.23;100.00;98294.53;5049401;28;20460;-76
2021/08/29 02:17:27;;;;;;;11.73;7.00;;;14.50;99.90;;;15.18;100.00;98299.63;5055665;28;20461;-76
2021/08/29 02:19:58;;;;;;;8.00;6.20;;;14.40;99.90;;;15.17;100.00;98295.38;5053159;28;20703;-77
2021/08/29 02:22:28;;;;;;;9.03;6.37;;;14.40;99.90;;;15.21;100.00;98291.28;5064745;28;20853;-77
2021/08/29 02:24:56;;;;;;;9.03;6.13;;;14.50;99.90;;;15.24;100.00;98290.09;5060441;28;20480;-76
2021/08/29 02:27:25;;;;;;;9.40;7.20;;;14.50;99.90;;;15.21;100.00;98296.56;5062449;28;20944;-76
2021/08/29 02:29:56;;;;;;;10.93;7.80;;;14.60;99.90;;;15.22;100.00;98292.09;5062730;28;20456;-77
2021/08/29 02:32:25;;;;;;;10.83;7.30;;;14.50;99.90;;;15.20;100.00;98300.25;5051280;28;20493;-76
2021/08/29 02:34:54;;;;;;;9.20;7.47;;;14.40;99.90;;;15.14;100.00;98295.78;5061885;28;20464;-77
2021/08/29 02:37:24;;;;;;;18.50;8.27;;;14.30;99.90;;;15.14;100.00;98303.69;5051725;28;20539;-76
2021/08/29 02:39:55;;;;;;;13.00;8.37;;;14.30;99.90;;;15.11;100.00;98299.66;5064627;28;20964;-76
2021/08/29 02:42:26;;;;;;;14.93;9.13;;;14.40;99.90;;;15.08;100.00;98296.63;5054822;28;20477;-76
2021/08/29 02:44:58;;;;;;;9.90;8.10;;;14.40;99.90;;;15.10;100.00;98294.59;5057918;28;20530;-77
2021/08/29 02:47:29;;;;;;;12.03;8.30;;;14.40;99.90;;;15.11;100.00;98291.75;5054179;28;20461;-77
2021/08/29 02:49:59;;;;;;;14.37;9.60;;;14.50;99.90;;;15.13;100.00;98299.47;5056549;28;20457;-76
2021/08/29 02:52:28;;;;;;;14.33;9.27;;;14.40;99.90;;;15.13;100.00;98299.47;5061440;28;20503;-77
2021/08/29 02:54:59;;;;;;;15.17;10.00;;;14.40;99.90;;;15.13;100.00;98294.19;5056763;28;20460;-76
2021/08/29 02:57:34;;;;;;;11.23;8.20;;;14.40;99.90;;;15.12;100.00;98297.84;5051409;28;20991;-76
2021/08/29 03:00:05;;;;;;;12.83;7.57;;;14.40;99.90;;;15.11;100.00;98298.84;5046862;28;20453;-77
2021/08/29 03:02:34;;;;;;;8.53;7.00;;;14.40;99.90;;;15.06;100.00;98294.19;5052332;28;20464;-76
2021/08/29 03:05:04;;;;;;;11.13;7.23;;;14.40;99.90;;;15.08;100.00;98301.91;5053685;28;20509;-76
2021/08/29 03:07:33;;;;;;;9.03;6.33;;;14.50;99.90;;;15.03;100.00;98296.44;5052608;28;20460;-77
2021/08/29 03:10:01;;;;;;;7.87;6.60;;;14.40;99.90;;;15.06;100.00;98294.19;5054205;28;20461;-76
2021/08/29 03:12:31;;;;;;;10.70;7.00;;;14.50;99.90;;;15.03;100.00;98299.88;5051898;28;20516;-77
2021/08/29 03:15:00;;;;;;;8.00;6.40;;;14.40;99.90;;;15.05;100.00;98291.78;5046906;28;20464;-77
2021/08/29 03:17:30;;;;;;;8.30;6.57;;;14.40;99.90;;;15.04;100.00;98290.16;5048141;28;20961;-76
2021/08/29 03:20:00;;;;;;;9.93;7.60;;;14.40;99.90;;;15.01;100.00;98293.22;5052651;28;20465;-76
2021/08/29 03:22:30;;;;;;;14.23;7.83;;;14.40;99.90;;;15.05;100.00;98289.16;5054550;28;20472;-77
2021/08/29 03:24:59;;;;;;;12.40;7.30;;;14.30;99.90;;;14.99;100.00;98282.88;5047451;28;20530;-77
2021/08/29 03:27:28;;;;;;;8.30;6.10;;;14.20;99.90;;;15.04;100.00;98287.53;5053111;28;20461;-77
2021/08/29 03:29:56;;;;;;;8.10;6.50;;;14.30;99.90;;;15.04;100.00;98279.63;5050815;28;20460;-77
2021/08/29 03:32:25;;;;;;;8.87;7.07;;;14.30;99.90;;;15.05;100.00;98278.63;5048141;28;20606;-76
2021/08/29 03:35:01;;;;;;;12.13;6.97;;;14.30;99.90;;;15.08;100.00;98278.19;5057044;28;20486;-76
2021/08/29 03:37:32;;;;;;;7.33;5.27;;;14.40;99.90;;;15.06;100.00;98278.38;5050744;28;20490;-77
2021/08/29 03:40:04;;;;;;;8.40;5.53;;;14.40;99.90;;;15.09;100.00;98277.19;5059833;28;20533;-77
2021/08/29 03:42:34;;;;;;;12.13;6.07;;;14.40;99.90;;;15.10;100.00;98271.69;5057094;28;20512;-76
2021/08/29 03:45:07;;;;;;;9.40;5.33;;;14.30;99.90;;;15.11;100.00;98275.94;5059613;28;20453;-76
2021/08/29 03:47:37;;;;;;;5.40;4.30;;;14.30;99.90;;;15.06;100.00;98278.38;5055091;28;20956;-77
2021/08/29 03:50:09;;;;;;;6.23;4.63;;;14.30;99.90;;;15.02;100.00;98277.22;5053397;28;20461;-77
2021/08/29 03:52:40;;;;;;;6.43;3.87;;;14.30;99.90;;;14.94;100.00;98272.19;5068061;28;20491;-77
2021/08/29 03:55:11;;;;;;;5.33;3.23;;;14.20;99.90;;;14.96;100.00;98275.41;5045389;28;20473;-77
2021/08/29 03:57:40;;;;;;;6.90;3.20;;;14.30;99.90;;;14.94;100.00;98271.38;5057556;28;20993;-76
2021/08/29 04:00:10;;;;;;;5.03;2.87;;;14.30;99.90;;;14.95;100.00;98268.53;5060546;28;20508;-76
2021/08/29 04:02:39;;;;;;;5.67;3.97;;;14.30;99.90;;;14.97;100.00;98270.94;5063409;28;20456;-77
2021/08/29 04:05:11;;;;;;;5.60;2.80;;;14.30;99.90;;;14.95;100.00;98275.63;5060775;28;21119;-77
2021/08/29 04:07:41;;;;;;;3.53;3.23;;;14.20;99.90;;;14.94;100.00;98279.25;5058758;28;20901;-77
2021/08/29 04:10:11;;;;;;;3.77;2.83;;;14.20;99.90;;;14.90;100.00;98273.59;5064459;28;20957;-76
2021/08/29 04:12:43;;;;;;;7.67;3.17;;;14.20;99.90;;;14.95;100.00;98275.63;5053140;28;20805;-77
2021/08/29 04:15:13;;;;;;;3.23;2.93;;;14.20;99.90;;;14.92;100.00;98273.41;5048579;28;20457;-76
2021/08/29 04:17:43;;;;;;;3.63;2.60;;;14.20;99.90;;;14.94;100.00;98274.00;5062725;28;20444;-76
2021/08/29 04:20:15;;;;;;;4.93;2.63;;;14.30;99.90;;;14.97;100.00;98270.94;5055289;28;20493;-77
2021/08/29 04:22:44;;;;;;;3.13;2.10;;;14.40;99.90;;;14.94;100.00;98268.72;5057036;28;20461;-76
2021/08/29 04:25:15;;;;;;;2.33;2.13;;;14.30;99.90;;;14.98;100.00;98262.03;5056670;28;20464;-76
2021/08/29 04:27:44;;;;;;;3.00;2.40;;;14.20;99.90;;;14.99;100.00;98267.06;5061087;28;20465;-76
2021/08/29 04:30:14;;;;;;;2.60;2.40;;;14.30;99.90;;;15.03;100.00;98278.00;5064213;28;20460;-77
2021/08/29 04:32:49;;;;;;;3.50;2.23;;;14.30;99.90;;;14.98;100.00;98276.00;5060232;28;20448;-77
2021/08/29 04:35:19;;;;;;;5.67;2.23;;;14.30;99.90;;;14.99;100.00;98271.56;5047185;28;20496;-76
2021/08/29 04:37:48;;;;;;;2.70;2.30;;;14.20;99.90;;;14.91;100.00;98267.34;5048068;28;20481;-77
2021/08/29 04:40:17;;;;;;;5.27;2.20;;;14.10;99.90;;;14.94;100.00;98271.38;5051772;28;20497;-76
2021/08/29 04:42:46;;;;;;;4.93;2.77;;;14.20;99.90;;;14.97;100.00;98270.94;5051308;28;20526;-77
2021/08/29 04:45:14;;;;;;;3.90;2.70;;;14.20;99.90;;;14.94;100.00;98274.00;5046210;28;20519;-77
2021/08/29 04:47:42;;;;;;;3.57;1.87;;;14.10;99.90;;;14.94;100.00;98263.47;5044283;28;20527;-76
2021/08/29 04:50:11;;;;;;;2.20;2.00;;;14.10;99.90;;;14.93;100.00;98272.38;5038945;28;20457;-76
2021/08/29 04:52:42;;;;;;;2.93;2.30;;;14.10;99.90;;;14.95;100.00;98270.34;5047501;28;20457;-77
2021/08/29 04:55:11;;;;;;;6.20;3.50;;;14.20;99.90;;;14.97;100.00;98270.94;5044931;28;20563;-77
2021/08/29 04:57:39;;;;;;;4.60;2.10;;;14.20;99.90;;;14.99;100.00;98269.72;5044605;28;20489;-76
2021/08/29 05:00:10;;;;;;;2.10;1.90;;;14.30;99.90;;;15.01;100.00;98274.78;5046356;28;20838;-76
2021/08/29 05:02:39;;;;;;;3.20;2.40;;;14.40;99.90;;;14.98;100.00;98278.66;5044943;28;20472;-77
2021/08/29 05:05:09;;;;;;;4.00;2.30;;;14.30;99.90;;;15.00;100.00;98281.06;5046022;28;20482;-76
2021/08/29 05:07:38;;;;;;;4.30;1.90;;;14.40;99.90;;;14.97;100.00;98274.38;5060642;28;20506;-77
2021/08/29 05:10:09;;;;;;;5.20;2.37;;;14.20;99.90;;;14.94;100.00;98279.25;5052112;28;20854;-76
2021/08/29 05:12:38;;;;;;;6.73;2.60;;;14.30;99.90;;;14.96;100.00;98282.53;5051785;28;20446;-77
2021/08/29 05:15:07;;;;;;;10.33;2.73;;;14.20;99.90;;;14.97;100.00;98284.09;5051603;28;20515;-77
2021/08/29 05:17:36;;;;;;;3.60;3.00;;;14.20;99.90;;;14.99;100.00;98276.81;5051773;28;20453;-77
2021/08/29 05:20:06;;;;;;;6.40;3.03;;;14.20;99.90;;;15.00;100.00;98278.41;5051878;28;20449;-77
2021/08/29 05:22:34;;;;;;;4.80;3.50;;;14.20;99.90;;;14.99;100.00;98282.88;5049482;28;20507;-77
2021/08/29 05:25:03;;;;;;;8.20;3.57;;;14.20;99.90;;;15.00;100.00;98278.41;5048679;28;20489;-77
2021/08/29 05:27:33;;;;;;;5.53;4.13;;;14.30;99.90;;;14.97;100.00;98274.38;5050770;28;20461;-77
2021/08/29 05:30:01;;;;;;;7.10;4.00;;;14.20;99.90;;;14.99;100.00;98279.47;5048825;28;20511;-77
2021/08/29 05:32:30;;;;;;;6.80;5.00;;;14.30;99.90;;;14.99;100.00;98284.72;5051466;28;20445;-76
2021/08/29 05:34:58;;;;;;;6.10;5.30;;;14.30;99.90;;;15.03;100.00;98288.53;5046048;28;20528;-77
2021/08/29 05:37:27;;;;;;;7.00;5.40;;;14.30;99.90;;;14.99;100.00;98292.63;5049161;28;20469;-78
2021/08/29 05:39:55;;;;;;;12.73;8.37;;;14.30;99.90;;;14.97;100.00;98292.00;5043124;28;20449;-77
2021/08/29 05:42:24;;;;;;;14.80;5.90;;;14.30;99.90;;;14.94;100.00;98293.25;5051044;28;20457;-76
2021/08/29 05:44:54;;;;;;;8.23;5.73;;;14.20;99.90;;;14.94;100.00;98289.81;5045236;28;20478;-76
2021/08/29 05:47:22;;;;;;;7.27;5.27;;;14.20;99.90;;;14.95;100.00;98288.78;5050895;28;20922;-76
2021/08/29 05:49:51;;;;;;;5.27;4.77;;;14.20;99.90;;;14.98;100.00;98291.00;5050292;28;20472;-76
2021/08/29 05:52:19;;;;;;;7.53;6.20;;;14.30;99.90;;;14.98;100.00;98283.09;5046449;28;20446;-76
2021/08/29 05:54:47;;;;;;;8.73;6.60;;;14.30;99.90;;;14.98;100.00;98281.28;5047886;28;20529;-76
2021/08/29 05:57:17;;;;;;;9.87;5.60;;;14.40;99.90;;;14.98;100.00;98285.75;5048195;28;20531;-76
2021/08/29 05:59:45;;;;;;;7.70;5.17;;;14.30;99.90;;;14.98;100.00;98285.75;5057675;28;20473;-76
2021/08/29 06:02:15;;;;;;;9.33;4.30;;;14.30;99.90;;;14.94;100.00;98280.06;5050290;28;20499;-76
2021/08/29 06:04:44;;;;;;;8.27;5.80;;;14.20;99.90;;;14.93;100.00;98282.91;5042582;28;20882;-76
2021/08/29 06:07:13;;;;;;;7.97;6.07;;;14.20;99.90;;;14.97;100.00;98299.91;5049975;28;20453;-77
2021/08/29 06:09:41;;;;;;;8.47;5.63;;;14.20;99.90;;;14.96;100.00;98288.56;5048529;28;20503;-76
2021/08/29 06:12:10;;;;;;;7.50;5.10;;;14.20;99.90;;;15.01;100.00;98290.59;5050219;28;20449;-76
2021/08/29 06:14:38;;;;;;;8.33;6.43;;;14.30;99.90;;;15.03;100.00;98291.16;5047740;28;20839;-76
2021/08/29 06:17:07;;;;;;;7.40;6.20;;;14.40;99.90;;;14.98;100.00;98285.75;5050101;28;20445;-76
2021/08/29 06:19:37;;;;;;;7.30;5.33;;;14.30;99.90;;;14.98;100.00;98285.75;5042970;28;20903;-76
2021/08/29 06:22:05;;;;;;;7.47;5.67;;;14.30;99.90;;;15.03;100.00;98280.63;5042644;28;20496;-76
2021/08/29 06:24:34;;;;;;;6.50;5.40;;;14.40;99.90;;;15.05;100.00;98283.88;5045338;28;20514;-76
2021/08/29 06:27:02;;;;;;;7.30;5.67;;;14.40;99.90;;;15.08;100.00;98283.47;5049909;28;20530;-76
2021/08/29 06:29:31;;;;;;;8.00;5.80;;;14.40;99.90;;;15.09;100.00;98288.53;5055782;28;20505;-76
2021/08/29 06:31:59;;;;;;;10.90;5.53;;;14.50;99.90;;;14.97;100.00;98274.38;5041475;28;20451;-76
2021/08/29 06:34:28;;;;;;;11.63;5.77;;;14.30;99.90;;;14.97;100.00;98278.84;5049289;28;20535;-76
2021/08/29 06:36:57;;;;;;;18.93;5.70;;;14.20;99.90;;;15.00;100.00;98278.41;5046805;28;20442;-76
2021/08/29 06:39:26;;;;;;;11.20;5.53;;;14.20;99.90;;;15.05;100.00;98268.09;5046875;28;20794;-77
2021/08/29 06:41:56;;;;;;;8.33;4.93;;;14.30;99.90;;;15.08;100.00;98270.28;5048746;28;20461;-77
2021/08/29 06:44:24;;;;;;;18.90;11.93;;;14.30;99.90;;;15.05;100.00;98270.72;5047367;28;20461;-77
2021/08/29 06:46:53;;;;;;;12.83;6.70;;;14.40;99.90;;;15.05;100.00;98262.81;5047204;28;20468;-77
2021/08/29 06:49:21;;;;;;;6.67;5.07;;;14.30;99.90;;;15.08;100.00;98259.75;5041153;28;20859;-76
2021/08/29 06:51:50;;;;;;;8.57;5.47;;;14.40;99.90;;;15.11;100.00;98265.41;5042119;28;20969;-78
2021/08/29 06:54:19;;;;;;;7.83;5.40;;;14.40;99.90;;;15.09;100.00;98261.38;5049612;28;20524;-78
2021/08/29 06:56:48;;;;;;;7.87;5.43;;;14.40;99.90;;;15.13;100.00;98267.84;5044940;28;20479;-78
2021/08/29 06:59:17;;;;;;;9.00;5.23;;;14.40;99.90;;;15.12;100.00;98271.50;5046354;28;20966;-79
2021/08/29 07:01:45;;;;;;;5.77;4.87;;;14.50;99.90;;;15.16;100.00;98272.69;5047301;28;20453;-79
2021/08/29 07:04:14;;;;;;;8.20;4.90;;;14.60;99.90;;;15.18;100.00;98273.28;5044815;28;20488;-78
2021/08/29 07:06:43;;;;;;;6.93;5.30;;;14.50;99.90;;;15.17;100.00;98266.38;5045304;28;20959;-78
2021/08/29 07:09:11;;;;;;;6.70;4.63;;;14.50;99.90;;;15.10;100.00;98273.50;5046670;28;20562;-78
2021/08/29 07:11:41;;;;;;;8.87;4.90;;;14.40;99.90;;;15.17;100.00;98274.28;5046149;28;20461;-78
2021/08/29 07:14:09;;;;;;;8.70;5.30;;;14.50;99.90;;;15.20;100.00;98270.44;5047483;28;20997;-78
2021/08/29 07:16:38;;;;;;;8.40;5.10;;;14.50;99.90;;;15.22;100.00;98271.03;5055011;28;20987;-78
2021/08/29 07:19:07;;;;;;;11.43;5.27;;;14.60;99.90;;;15.22;100.00;98276.31;5053925;28;20534;-80
2021/08/29 07:21:36;;;;;;;13.20;7.90;;;14.50;99.90;;;15.21;100.00;98280.75;5046972;28;20543;-78
2021/08/29 07:24:05;;;;;;;11.83;6.80;;;14.60;99.90;;;15.25;100.00;98276.69;5050176;28;20469;-78
2021/08/29 07:26:34;;;;;;;9.00;5.57;;;14.60;99.90;;;15.21;100.00;98270.22;5051696;28;20496;-78
2021/08/29 07:29:04;;;;;;;10.17;6.87;;;14.50;99.90;;;15.28;100.00;98270.19;5057421;28;20441;-77
2021/08/29 07:31:32;;;;;;;8.40;5.83;;;14.60;99.90;;;15.28;100.00;98271.00;5051997;28;20461;-77
2021/08/29 07:34:01;;;;;;;7.17;5.63;;;14.70;99.90;;;15.29;100.00;98274.44;5048632;28;20456;-77
2021/08/29 07:36:29;;;;;;;7.57;4.90;;;14.70;99.90;;;15.26;100.00;98277.50;5051772;28;20991;-77
2021/08/29 07:38:58;;;;;;;8.27;5.60;;;14.60;99.90;;;15.22;100.00;98276.31;5050004;28;20489;-77
2021/08/29 07:41:26;;;;;;;6.70;5.67;;;14.50;99.90;;;15.29;100.00;98272.63;5050813;28;20558;-78
2021/08/29 07:43:55;;;;;;;16.63;5.70;;;14.70;99.90;;;15.32;100.00;98269.56;5047748;28;20460;-77
2021/08/29 07:46:26;;;;;;;9.80;6.60;;;14.60;99.90;;;15.31;100.00;98265.31;5050405;28;20460;-77
2021/08/29 07:48:55;;;;;;;8.43;5.97;;;14.70;99.90;;;15.37;100.00;98274.19;5052955;28;20457;-77
2021/08/29 07:51:24;;;;;;;6.87;5.03;;;14.60;99.90;;;15.40;100.00;98268.50;5049657;28;20457;-76
2021/08/29 07:53:52;;;;;;;8.10;6.03;;;14.70;99.90;;;15.44;100.00;98277.59;5049884;28;20457;-77
2021/08/29 07:56:21;;;;;;;7.60;5.33;;;14.70;99.90;;;15.50;100.00;98274.16;5050510;28;21050;-77
2021/08/29 07:58:49;;;;;;;7.43;5.47;;;14.70;99.90;;;15.50;100.00;98284.69;5048705;28;20478;-77
2021/08/29 08:01:18;;;;;;;7.03;5.60;;;14.80;99.90;;;15.46;100.00;98273.72;5050628;28;20474;-77
2021/08/29 08:03:48;;;;;;;10.33;5.60;;;14.80;99.90;;;15.56;100.00;98270.66;5045956;28;20560;-77
2021/08/29 08:06:22;;;;;;;9.50;5.60;;;14.90;99.90;;;15.64;100.00;98280.13;5054299;28;20464;-78
2021/08/29 08:08:50;;;;;;;12.87;5.47;;;15.00;99.90;;;15.69;100.00;98272.41;5049965;28;20461;-77
2021/08/29 08:11:19;;;;;;;9.13;5.50;;;15.10;99.90;;;15.74;100.00;98273.38;5048790;28;20449;-77
2021/08/29 08:13:47;;;;;;;9.03;6.13;;;15.10;99.90;;;15.80;100.00;98269.88;5048319;28;20503;-77
2021/08/29 08:16:16;;;;;;;9.57;5.10;;;15.20;99.90;;;15.88;100.00;98271.44;5051230;28;20488;-77
2021/08/29 08:18:45;;;;;;;6.80;4.47;;;15.20;99.90;;;15.88;100.00;98274.88;5056843;28;20468;-77
2021/08/29 08:21:15;;;;;;;11.00;5.53;;;15.30;99.90;;;15.86;100.00;98276.13;5052619;28;20469;-77
2021/08/29 08:23:43;;;;;;;5.93;4.97;;;15.20;99.90;;;15.89;100.00;98270.44;5050932;28;20472;-77
2021/08/29 08:26:12;;;;;;;5.50;4.67;;;15.30;99.90;;;15.99;100.00;98276.03;5054547;28;20488;-77
2021/08/29 08:28:40;;;;;;;7.90;5.43;;;15.40;99.90;;;16.06;100.00;98279.41;5051613;28;20465;-77
2021/08/29 08:31:09;;;;;;;9.93;5.70;;;15.30;99.90;;;16.08;100.00;98272.09;5048392;28;20453;-78
2021/08/29 08:33:37;;;;;;;6.93;4.30;;;15.40;99.90;;;16.13;100.00;98285.44;5048261;28;20461;-77
2021/08/29 08:36:06;;;;;;;7.07;5.20;;;15.40;99.90;;;16.13;100.00;98280.16;5056033;28;20543;-78
2021/08/29 08:38:36;;;;;;;9.33;4.80;;;15.50;99.90;;;16.15;100.00;98286.03;5048192;28;20469;-78
2021/08/29 08:41:04;;;;;;;6.83;4.47;;;15.50;99.90;;;16.14;100.00;98284.41;5048564;28;20930;-78
2021/08/29 08:43:33;;;;;;;4.40;3.80;;;15.50;99.90;;;16.15;100.00;98277.28;5054512;28;20464;-78
2021/08/29 08:46:04;;;;;;;8.27;4.90;;;15.40;99.90;;;16.10;100.00;98281.38;5047462;28;20489;-77
2021/08/29 08:48:34;;;;;;;6.67;4.57;;;15.40;99.90;;;16.02;100.00;98283.50;5052489;28;20484;-81
2021/08/29 08:51:08;;;;;;;13.80;8.73;;;15.30;99.90;;;16.08;100.00;98287.91;5052148;28;20985;-78
2021/08/29 08:53:41;;;;;;;8.90;5.40;;;15.30;99.90;;;16.13;100.00;98295.19;5053470;28;20542;-78
2021/08/29 08:56:10;;;;;;;6.53;4.60;;;15.30;99.90;;;16.11;100.00;98295.38;5048035;28;20496;-77
2021/08/29 08:58:42;;;;;;;7.90;4.23;;;15.30;99.90;;;16.01;100.00;98293.25;5049752;28;20461;-78
2021/08/29 09:01:11;;;;;;;5.67;4.63;;;15.30;99.90;;;16.03;100.00;98290.41;5054995;28;20467;-77
2021/08/29 09:03:41;;;;;;;7.83;5.43;;;15.30;99.90;;;16.04;100.00;98292.00;5047991;28;21033;-77
2021/08/29 09:06:10;;;;;;;7.40;5.50;;;15.40;99.90;;;16.06;100.00;98297.88;5053904;28;20957;-77
2021/08/29 09:08:40;;;;;;;6.40;4.93;;;15.50;99.90;;;16.07;100.00;98288.94;5059188;28;20465;-78
2021/08/29 09:11:09;;;;;;;8.20;5.20;;;15.40;99.90;;;16.08;100.00;98294.00;5053736;28;20473;-77
2021/08/29 09:13:57;;;;;;;7.20;5.37;;;15.50;99.90;;;16.10;100.00;98291.94;5048508;28;20530;-78
2021/08/29 09:16:28;;;;;;;7.20;4.80;;;15.50;99.90;;;16.06;100.00;98287.34;5041608;28;20916;-77
2021/08/29 09:18:59;;;;;;;25.00;15.70;;;15.40;99.90;;;16.03;100.00;98290.41;5053433;28;21277;-77
2021/08/29 09:21:31;;;;;;;10.03;5.20;;;15.30;99.90;;;16.06;100.00;98287.34;5056297;28;20531;-77
2021/08/29 09:24:08;;;;;;;8.73;4.93;;;15.30;99.90;;;16.01;100.00;98287.97;5061167;28;20499;-77
2021/08/29 09:26:42;;;;;;;8.80;5.30;;;15.40;99.90;;;15.98;100.00;98290.22;5058107;28;20991;-77
2021/08/29 09:29:22;;;;;;;7.43;5.77;;;15.40;99.90;;;15.93;100.00;98290.09;5046474;28;20476;-77
2021/08/29 09:31:51;;;;;;;12.07;5.53;;;15.30;99.90;;;16.01;100.00;98289.78;5048329;28;20611;-77
2021/08/29 09:34:23;;;;;;;7.60;4.60;;;15.30;99.90;;;16.04;100.00;98287.53;5050946;28;20469;-77
2021/08/29 09:37:01;;;;;;;7.33;5.30;;;15.50;99.90;;;16.07;100.00;98286.28;5053039;28;20505;-78
2021/08/29 09:39:31;;;;;;;8.53;5.33;;;15.50;99.90;;;16.09;100.00;98294.81;5050873;28;20502;-77
2021/08/29 09:42:03;;;;;;;8.10;5.20;;;15.40;99.90;;;16.08;100.00;98290.56;5057825;28;20499;-77
2021/08/29 09:44:35;;;;;;;13.90;5.40;;;15.50;99.90;;;16.12;100.00;98294.38;5049546;28;20461;-77
2021/08/29 09:47:06;;;;;;;5.80;4.30;;;15.50;99.90;;;16.17;100.00;98297.19;5057527;28;20441;-77
2021/08/29 09:49:37;;;;;;;7.23;4.90;;;15.50;99.90;;;16.26;100.00;98290.59;5050357;28;20852;-77
2021/08/29 09:52:09;;;;;;;7.50;5.20;;;15.60;99.90;;;16.35;100.00;98289.28;5054242;28;20935;-77
2021/08/29 09:54:43;;;;;;;6.87;4.77;;;15.60;99.90;;;16.44;100.00;98293.28;5055682;28;20865;-77
2021/08/29 09:57:14;;;;;;;7.47;4.43;;;15.80;99.90;;;16.51;100.00;98291.38;5049949;28;20503;-77
2021/08/29 09:59:46;;;;;;;6.90;5.20;;;15.80;99.90;;;16.57;100.00;98287.06;5052486;28;20511;-77
2021/08/29 10:02:23;;;;;;;7.40;5.17;;;16.00;99.90;;;16.58;100.00;98280.78;5052965;28;20448;-77
2021/08/29 10:05:12;;;;;;;7.77;4.30;;;15.90;99.90;;;16.58;100.00;98281.59;5051317;28;20488;-78
2021/08/29 10:07:58;;;;;;;9.37;5.10;;;15.90;99.90;;;16.65;100.00;98281.53;5050124;28;20460;-78
2021/08/29 10:10:31;;;;;;;12.40;6.53;;;16.00;99.90;;;16.64;100.00;98279.91;5048848;28;20504;-78
2021/08/29 10:13:00;;;;;;;30.37;15.07;;;16.00;99.90;;;16.64;100.00;98282.53;5050988;28;20448;-79
2021/08/29 10:15:29;;;;;;;9.33;5.33;;;15.90;99.90;;;16.66;100.00;98284.97;5049888;28;20449;-78
2021/08/29 10:18:01;;;;;;;6.03;4.50;;;16.10;99.90;;;16.69;100.00;98282.69;5055793;28;20583;-78
2021/08/29 10:20:34;;;;;;;7.30;4.27;;;16.10;99.90;;;16.58;100.00;98278.94;5054952;28;20445;-78
2021/08/29 10:23:03;;;;;;;9.63;5.17;;;16.10;99.90;;;16.64;100.00;98276.44;5054651;28;20486;-78